KILN/ILN METAR and TAF weather

Enter ICAO airport designator
Station Type Date Time Source
KILN METAR 2019/02/23 22:54 UTC NOAA

KILN 232254Z AUTO 15007KT 10SM FEW011 OVC021 10/08 A2986 RMK AO2 SLP128 T01000083


Station Type Date Time Source
KILN Decoded METAR 2019/02/23 22:54 UTC NOAA

WILMINGTON INDUSTRIAL AIRPORT , OH, United States (KILN) 39-26N 083-47W 332M
Feb 23, 2019 - 05:54 PM EST / 2019.02.23 2254 UTC
Wind: from the SSE (150 degrees) at 8 MPH (7 KT):0
Visibility: 10 mile(s):0
Sky conditions: overcast
Temperature: 50.0 F (10.0 C)
Dew Point: 46.9 F (8.3 C)
Relative Humidity: 89%
Pressure (altimeter): 29.86 in. Hg (1011 hPa)
ob: KILN 232254Z AUTO 15007KT 10SM FEW011 OVC021 10/08 A2986 RMK AO2 SLP128 T01000083
cycle: 23

Station Type Date Time Source
KILN TAF 2019/02/23 18:57 UTC NOAA

TAF KILN 231753Z 2318/2418 15012KT P6SM VCSH OVC008
FM240000 17015G25KT P6SM -SHRA OVC012 WS020/20050KT
FM240600 19019G31KT P6SM -SHRA OVC011 WS020/20055KT
FM240900 23023G37KT P6SM VCSH BKN015
FM241200 24024G41KT P6SM VCSH BKN030
FM241700 26025G38KT P6SM BKN050


Example: see airport list